Time;durP1;ratioP1;P1;durP2;ratioP2;P2;SDS_P1;SDS_P2;PMS_P1;PMS_P2;Temp;Humidity;BMP_temperature;BMP_pressure;BME280_temperature;BME280_humidity;BME280_pressure;Samples;Min_cycle;Max_cycle;Signal;HPM_P1;HPM_P2
2023/08/02 00:01:48;;;;;;;3.13;2.47;;;;;;;21.08;50.70;97885.16;6918886;28;20363;-84
2023/08/02 00:05:09;;;;;;;4.57;2.57;;;;;;;21.22;49.94;97888.00;6920372;28;20290;-84
2023/08/02 00:08:33;;;;;;;6.37;2.27;;;;;;;21.37;49.61;97890.53;6919564;28;20346;-83
2023/08/02 00:11:54;;;;;;;3.40;2.40;;;;;;;20.89;51.09;97899.97;6919907;28;20234;-83
2023/08/02 00:15:16;;;;;;;2.80;2.20;;;;;;;21.04;50.64;97902.50;6920413;28;20764;-83
2023/08/02 00:18:37;;;;;;;4.30;2.37;;;;;;;20.57;51.99;97887.97;6918968;28;20727;-83
2023/08/02 00:21:59;;;;;;;4.83;2.30;;;;;;;20.56;52.71;97867.97;6919417;28;20274;-84
2023/08/02 00:25:22;;;;;;;2.10;2.00;;;;;;;20.86;52.01;97883.25;6919461;28;20287;-84
2023/08/02 00:28:44;;;;;;;3.10;2.47;;;;;;;20.10;54.64;97882.44;6893546;28;20342;-84
2023/08/02 00:32:05;;;;;;;2.50;2.30;;;;;;;20.77;52.47;97854.84;6892339;28;20319;-84
2023/08/02 00:35:27;;;;;;;4.30;2.67;;;;;;;20.57;52.76;97858.66;6892479;28;20347;-84
2023/08/02 00:38:48;;;;;;;3.90;2.30;;;;;;;21.06;51.44;97861.91;6891305;28;20298;-83
2023/08/02 00:42:11;;;;;;;3.30;2.20;;;;;;;21.42;50.44;97852.06;6891481;28;20393;-83
2023/08/02 00:45:33;;;;;;;3.63;2.33;;;;;;;21.12;51.45;97854.44;6893471;28;20280;-82
2023/08/02 00:48:55;;;;;;;4.03;2.30;;;;;;;20.84;51.84;97802.13;6893344;28;20731;-82
2023/08/02 00:52:16;;;;;;;4.83;2.80;;;;;;;21.19;51.83;97842.78;6893774;28;20712;-82
2023/08/02 00:55:39;;;;;;;4.07;2.40;;;;;;;20.75;53.03;97827.75;6893829;28;20799;-83
2023/08/02 00:59:02;;;;;;;2.70;2.10;;;;;;;20.59;53.54;97830.97;6893650;28;20355;-83
2023/08/02 01:02:24;;;;;;;3.20;2.30;;;;;;;20.67;53.70;97815.50;6892206;28;20363;-83
2023/08/02 01:05:52;;;;;;;2.73;2.47;;;;;;;21.23;51.34;97821.06;6893082;28;20334;-82
2023/08/02 01:09:20;;;;;;;6.40;2.20;;;;;;;21.34;51.37;97822.56;6892311;28;20402;-83
2023/08/02 01:12:46;;;;;;;2.80;2.10;;;;;;;21.23;51.50;97820.28;6897258;28;20316;-84
2023/08/02 01:16:08;;;;;;;3.10;2.73;;;;;;;21.20;51.67;97824.41;6895712;28;20224;-84
2023/08/02 01:19:31;;;;;;;4.27;2.37;;;;;;;21.27;51.57;97801.00;6897887;28;20639;-83
2023/08/02 01:22:55;;;;;;;3.43;2.10;;;;;;;21.02;52.12;97835.38;6896606;28;20230;-84
2023/08/02 01:26:18;;;;;;;4.03;2.30;;;;;;;21.13;52.02;97820.41;6895708;28;20568;-83
2023/08/02 01:29:44;;;;;;;3.20;2.30;;;;;;;21.00;51.98;97810.19;6893099;28;20207;-84
2023/08/02 01:33:06;;;;;;;4.50;2.80;;;;;;;21.25;51.07;97791.44;6863658;28;20200;-83
2023/08/02 01:36:27;;;;;;;7.47;2.87;;;;;;;20.41;53.40;97791.47;6863679;28;20734;-82
2023/08/02 01:39:50;;;;;;;3.33;2.10;;;;;;;20.87;52.18;97783.50;6863526;28;20265;-83
2023/08/02 01:43:12;;;;;;;2.80;2.20;;;;;;;21.02;51.91;97781.38;6863880;28;20910;-83
2023/08/02 01:46:33;;;;;;;4.30;2.30;;;;;;;20.98;52.17;97796.78;6863406;28;20236;-83
2023/08/02 01:49:55;;;;;;;3.63;2.20;;;;;;;20.70;53.45;97777.72;6865025;28;20231;-82
2023/08/02 01:53:16;;;;;;;6.70;2.80;;;;;;;20.71;53.11;97765.63;6891374;28;20291;-83
2023/08/02 01:56:39;;;;;;;4.93;2.30;;;;;;;20.94;52.72;97773.81;6891990;28;20380;-83
2023/08/02 02:00:01;;;;;;;3.37;2.10;;;;;;;21.06;51.86;97774.22;6885127;28;20595;-83
2023/08/02 02:03:22;;;;;;;2.40;2.03;;;;;;;21.13;51.74;97761.72;6891883;28;20227;-83
2023/08/02 02:06:44;;;;;;;2.50;2.23;;;;;;;21.22;51.24;97766.56;6890660;28;20267;-82
2023/08/02 02:10:06;;;;;;;2.67;2.30;;;;;;;21.19;51.41;97787.97;6890328;28;20316;-82
2023/08/02 02:13:29;;;;;;;2.47;2.27;;;;;;;21.30;51.02;97753.78;6891472;28;20221;-82
2023/08/02 02:16:50;;;;;;;2.63;2.20;;;;;;;21.36;50.76;97747.09;6895400;28;20279;-82
2023/08/02 02:20:13;;;;;;;3.20;2.00;;;;;;;21.36;50.38;97721.63;6895610;28;20356;-82
2023/08/02 02:23:34;;;;;;;2.83;2.20;;;;;;;21.06;51.74;97745.97;6894735;28;20200;-82
2023/08/02 02:26:57;;;;;;;4.47;2.20;;;;;;;21.18;51.28;97737.00;6887430;28;20611;-83
2023/08/02 02:30:19;;;;;;;3.10;2.20;;;;;;;21.08;51.34;97741.00;6893459;28;20315;-82
2023/08/02 02:33:41;;;;;;;3.20;2.10;;;;;;;21.18;51.39;97731.50;6894137;28;20792;-82
2023/08/02 02:37:03;;;;;;;2.97;2.40;;;;;;;21.07;51.79;97726.50;6892539;28;20373;-82
2023/08/02 02:40:24;;;;;;;2.93;2.20;;;;;;;21.26;51.15;97710.81;6893431;28;20240;-83
2023/08/02 02:43:46;;;;;;;3.90;2.40;;;;;;;21.18;51.63;97715.06;6893386;28;20343;-83
2023/08/02 02:47:09;;;;;;;3.57;1.73;;;;;;;21.27;51.09;97706.16;6892492;28;20293;-82
2023/08/02 02:50:30;;;;;;;3.50;2.47;;;;;;;21.51;50.72;97713.94;6893276;28;20757;-83
2023/08/02 02:53:52;;;;;;;2.40;2.10;;;;;;;21.40;50.80;97707.00;6893026;28;20292;-82
2023/08/02 02:57:15;;;;;;;4.37;2.47;;;;;;;21.08;51.55;97720.69;6893158;28;20292;-82
2023/08/02 03:00:36;;;;;;;2.20;2.00;;;;;;;21.11;51.48;97708.31;6892872;28;20614;-82
2023/08/02 03:03:59;;;;;;;4.80;2.40;;;;;;;21.33;51.10;97714.00;6892501;28;20296;-82
2023/08/02 03:07:20;;;;;;;2.03;1.90;;;;;;;21.42;50.78;97696.53;6892802;28;20212;-84
2023/08/02 03:10:42;;;;;;;2.20;2.00;;;;;;;21.50;50.28;97686.81;6892854;28;20291;-83
2023/08/02 03:14:04;;;;;;;2.90;2.70;;;;;;;21.39;50.55;97679.88;6890701;28;20296;-83
2023/08/02 03:17:27;;;;;;;5.20;2.33;;;;;;;21.23;50.98;97673.84;6892648;28;20233;-83
2023/08/02 03:20:50;;;;;;;2.77;2.23;;;;;;;21.36;50.46;97666.78;6892756;28;20236;-82
2023/08/02 03:24:12;;;;;;;4.77;2.40;;;;;;;21.42;50.81;97662.84;6893540;28;20683;-83
2023/08/02 03:27:33;;;;;;;7.43;2.40;;;;;;;21.25;50.92;97649.69;6892283;28;20697;-84
2023/08/02 03:31:02;;;;;;;5.93;2.03;;;;;;;21.30;50.74;97660.56;6866562;28;20312;-82
2023/08/02 03:34:23;;;;;;;3.53;2.23;;;;;;;21.40;50.50;97674.09;6866409;28;20343;-83
2023/08/02 03:37:46;;;;;;;3.23;2.23;;;;;;;21.54;49.62;97660.41;6865179;28;20231;-84
2023/08/02 03:41:07;;;;;;;3.20;2.20;;;;;;;21.69;49.44;97655.50;6864797;28;20271;-83
2023/08/02 03:44:29;;;;;;;2.40;2.20;;;;;;;21.88;48.99;97663.59;6864873;28;20286;-83
2023/08/02 03:47:50;;;;;;;2.67;2.00;;;;;;;21.84;49.11;97652.44;6864449;28;20746;-83
2023/08/02 03:51:12;;;;;;;2.70;2.00;;;;;;;21.72;49.12;97645.84;6868135;28;20221;-83
2023/08/02 03:54:35;;;;;;;4.63;2.07;;;;;;;21.77;49.13;97632.81;6865057;28;20304;-85
2023/08/02 03:57:56;;;;;;;2.50;2.30;;;;;;;21.87;48.66;97629.88;6863965;28;20372;-83
2023/08/02 04:01:18;;;;;;;2.60;2.20;;;;;;;21.89;48.87;97611.16;6867760;28;20325;-83
2023/08/02 04:04:40;;;;;;;2.53;2.17;;;;;;;21.92;48.86;97617.97;6878264;28;20216;-83
2023/08/02 04:08:03;;;;;;;2.90;2.37;;;;;;;21.76;48.79;97612.00;6874895;28;20229;-83
2023/08/02 04:11:25;;;;;;;3.73;2.50;;;;;;;21.56;49.59;97611.56;6873047;28;20315;-82
2023/08/02 04:14:47;;;;;;;2.50;2.30;;;;;;;21.72;48.86;97607.44;6869835;28;20296;-82
2023/08/02 04:18:08;;;;;;;2.10;1.90;;;;;;;21.87;48.18;97599.69;6877626;28;20759;-82
2023/08/02 04:21:30;;;;;;;2.40;2.20;;;;;;;21.87;47.64;97593.38;6871809;28;20319;-82
2023/08/02 04:24:51;;;;;;;2.63;2.10;;;;;;;21.85;47.79;97590.97;6894291;28;20239;-83
2023/08/02 04:28:14;;;;;;;3.80;2.07;;;;;;;21.32;48.43;97523.19;6892775;28;20288;-83
2023/08/02 04:31:36;;;;;;;5.83;2.30;;;;;;;21.56;48.96;97575.88;6897684;28;20306;-83
2023/08/02 04:34:57;;;;;;;2.70;2.30;;;;;;;21.62;49.20;97575.50;6893250;28;20794;-82
2023/08/02 04:38:19;;;;;;;2.90;1.93;;;;;;;21.58;49.80;97573.66;6891214;28;20217;-84
2023/08/02 04:41:40;;;;;;;3.70;2.47;;;;;;;21.41;50.42;97567.94;6899717;28;20252;-84
2023/08/02 04:45:04;;;;;;;5.03;2.30;;;;;;;21.55;50.64;97577.81;6921158;28;20205;-83
2023/08/02 04:48:25;;;;;;;3.50;1.90;;;;;;;21.51;51.20;97556.78;6913323;28;20570;-84
2023/08/02 04:51:47;;;;;;;3.30;2.40;;;;;;;21.33;51.66;97572.22;6899191;28;20323;-84
2023/08/02 04:55:10;;;;;;;6.10;2.50;;;;;;;21.42;52.14;97553.94;6897697;28;20247;-83
2023/08/02 04:58:31;;;;;;;2.30;2.10;;;;;;;21.43;52.43;97571.22;6896318;28;20201;-84
2023/08/02 05:01:54;;;;;;;3.20;2.10;;;;;;;21.34;53.11;97565.63;6896827;28;20235;-84
2023/08/02 05:05:16;;;;;;;2.67;2.20;;;;;;;21.28;53.56;97553.13;6894186;28;20259;-85
2023/08/02 05:08:37;;;;;;;3.27;2.10;;;;;;;21.24;53.03;97545.81;6890630;28;20201;-85
2023/08/02 05:11:59;;;;;;;3.40;2.37;;;;;;;21.31;54.07;97558.00;6889886;28;20225;-85
2023/08/02 05:15:20;;;;;;;3.77;2.33;;;;;;;21.39;53.50;97560.06;6887492;28;20287;-85
2023/08/02 05:18:43;;;;;;;3.37;2.67;;;;;;;21.18;54.30;97539.63;6898784;28;20256;-85
2023/08/02 05:22:05;;;;;;;4.47;2.60;;;;;;;21.35;54.27;97548.06;6889146;28;20251;-85
2023/08/02 05:25:28;;;;;;;5.33;2.50;;;;;;;21.52;53.91;97555.66;6891644;28;20216;-84
2023/08/02 05:28:49;;;;;;;5.30;2.90;;;;;;;20.99;54.78;97488.72;6913797;28;20196;-84
2023/08/02 05:32:11;;;;;;;2.93;2.40;;;;;;;21.35;54.92;97539.81;6920518;28;20294;-84
2023/08/02 05:35:34;;;;;;;2.63;2.40;;;;;;;21.06;56.37;97545.91;6920285;28;20296;-84
2023/08/02 05:38:55;;;;;;;2.97;2.77;;;;;;;20.88;56.52;97505.66;6920000;28;20285;-85
2023/08/02 05:42:18;;;;;;;6.00;2.80;;;;;;;20.94;56.71;97486.09;6882441;28;20255;-84
2023/08/02 05:45:42;;;;;;;3.53;2.50;;;;;;;21.12;57.04;97539.19;6892336;28;20222;-85
2023/08/02 05:49:04;;;;;;;5.40;3.03;;;;;;;21.06;57.63;97533.03;6893188;28;20299;-84
2023/08/02 05:52:27;;;;;;;3.43;2.80;;;;;;;20.90;58.66;97528.09;6908577;28;20314;-85
2023/08/02 05:55:48;;;;;;;4.30;2.90;;;;;;;20.94;59.16;97537.34;6895232;28;20213;-85
2023/08/02 05:59:10;;;;;;;3.57;2.90;;;;;;;21.09;59.06;97535.13;6909881;28;20350;-84
2023/08/02 06:02:31;;;;;;;5.43;2.97;;;;;;;21.08;59.01;97524.47;6924689;28;20318;-85
2023/08/02 06:05:53;;;;;;;3.53;2.73;;;;;;;20.98;59.22;97511.78;6920329;28;20687;-85
2023/08/02 06:09:16;;;;;;;3.33;2.60;;;;;;;21.12;59.57;97520.00;6920738;28;20215;-84
2023/08/02 06:12:37;;;;;;;4.60;3.07;;;;;;;21.27;59.02;97513.13;6920462;28;20255;-85
2023/08/02 06:15:59;;;;;;;4.63;3.47;;;;;;;21.30;59.19;97520.72;6920539;28;20323;-85
2023/08/02 06:19:29;;;;;;;4.77;3.50;;;;;;;21.27;59.33;97522.47;6897488;28;20291;-83
2023/08/02 06:22:51;;;;;;;4.07;3.10;;;;;;;21.42;59.22;97518.28;6898760;28;20208;-84
2023/08/02 06:26:14;;;;;;;4.77;3.20;;;;;;;21.25;59.76;97512.59;6897724;28;20688;-83
2023/08/02 06:29:35;;;;;;;4.57;3.87;;;;;;;21.38;59.33;97517.31;6896256;28;20647;-85
2023/08/02 06:32:57;;;;;;;6.03;3.87;;;;;;;21.36;59.40;97515.97;6898208;28;20343;-83
2023/08/02 06:36:18;;;;;;;4.53;3.90;;;;;;;21.23;59.74;97511.28;6896500;28;20267;-84
2023/08/02 06:39:40;;;;;;;5.80;4.00;;;;;;;21.26;59.91;97480.53;6899279;28;20258;-83
2023/08/02 06:43:03;;;;;;;5.80;4.30;;;;;;;21.41;59.61;97488.44;6898325;28;20287;-84
2023/08/02 06:46:24;;;;;;;4.70;4.23;;;;;;;20.59;59.16;97370.88;6898350;28;20239;-84
2023/08/02 06:49:46;;;;;;;6.20;4.93;;;;;;;21.43;58.91;97481.53;6899583;28;20306;-83
2023/08/02 06:53:07;;;;;;;7.60;6.07;;;;;;;21.59;59.00;97462.84;6899337;28;20294;-83
2023/08/02 06:56:29;;;;;;;6.40;5.40;;;;;;;21.45;59.66;97456.53;6898257;28;20231;-83
2023/08/02 06:59:55;;;;;;;6.20;5.60;;;;;;;21.50;59.86;97453.69;6908815;28;20315;-83
2023/08/02 07:03:16;;;;;;;6.50;5.23;;;;;;;21.81;59.36;97454.66;6923209;28;20237;-83
2023/08/02 07:06:38;;;;;;;5.67;4.90;;;;;;;21.41;60.11;97385.06;6922487;28;20321;-84
2023/08/02 07:10:00;;;;;;;5.90;5.30;;;;;;;21.94;59.19;97416.19;6923368;28;20229;-84
2023/08/02 07:13:22;;;;;;;6.23;5.60;;;;;;;22.05;59.78;97442.28;6923418;28;20242;-83
2023/08/02 07:16:45;;;;;;;8.40;5.70;;;;;;;21.82;59.56;97434.31;6922122;28;20318;-83
2023/08/02 07:20:08;;;;;;;6.30;5.70;;;;;;;22.03;59.40;97427.25;6922886;28;20265;-84
2023/08/02 07:23:29;;;;;;;7.23;5.50;;;;;;;21.76;60.39;97428.16;6922683;28;20236;-82
2023/08/02 07:26:51;;;;;;;8.10;6.60;;;;;;;22.10;60.04;97431.19;6911715;28;20333;-84
2023/08/02 07:30:12;;;;;;;7.80;6.40;;;;;;;22.17;60.30;97423.31;6893153;28;20248;-84
2023/08/02 07:33:35;;;;;;;6.17;5.57;;;;;;;22.24;58.73;97392.69;6892204;28;20239;-85
2023/08/02 07:36:57;;;;;;;7.17;6.07;;;;;;;22.46;59.71;97401.72;6891901;28;20263;-84
2023/08/02 07:40:19;;;;;;;6.07;5.50;;;;;;;22.71;59.42;97395.53;6892872;28;20317;-85
2023/08/02 07:43:42;;;;;;;6.87;6.17;;;;;;;22.65;58.99;97396.81;6886561;28;20386;-84
2023/08/02 07:47:03;;;;;;;6.60;5.13;;;;;;;22.92;58.35;97382.03;6894648;28;20336;-87
2023/08/02 07:50:26;;;;;;;6.60;5.90;;;;;;;22.95;57.78;97381.44;6889377;28;20333;-85
2023/08/02 07:53:49;;;;;;;7.07;5.90;;;;;;;22.67;58.34;97363.53;6881962;28;20232;-86
2023/08/02 07:57:11;;;;;;;10.40;6.37;;;;;;;22.51;60.28;97368.63;6888687;28;20347;-88
2023/08/02 08:00:32;;;;;;;7.57;5.80;;;;;;;22.92;59.05;97376.56;6890253;28;20239;-84
2023/08/02 08:03:54;;;;;;;7.30;5.20;;;;;;;22.82;59.38;97363.91;6891239;28;20757;-83
2023/08/02 08:07:17;;;;;;;6.23;5.53;;;;;;;22.23;60.43;97358.91;6890639;28;20266;-88
2023/08/02 08:10:38;;;;;;;6.20;5.60;;;;;;;22.54;60.04;97358.97;6889665;28;20320;-88
2023/08/02 08:14:00;;;;;;;6.87;5.57;;;;;;;22.50;60.84;97358.78;6888044;28;20804;-86
2023/08/02 08:17:21;;;;;;;6.50;4.87;;;;;;;22.79;59.81;97356.31;6889298;28;20323;-85
2023/08/02 08:20:43;;;;;;;5.97;5.37;;;;;;;22.50;59.82;97353.28;6888704;28;20365;-85
2023/08/02 08:24:06;;;;;;;6.93;5.80;;;;;;;22.67;60.45;97345.09;6862268;28;20742;-85
2023/08/02 08:27:28;;;;;;;5.33;4.83;;;;;;;22.45;60.98;97319.63;6877436;28;20637;-88
2023/08/02 08:30:49;;;;;;;7.67;5.00;;;;;;;22.34;61.60;97327.31;6892254;28;20362;-83
2023/08/02 08:34:11;;;;;;;5.53;5.00;;;;;;;22.49;61.45;97310.44;6892297;28;20238;-83
2023/08/02 08:37:32;;;;;;;5.20;4.70;;;;;;;22.28;61.43;97309.38;6891381;28;20260;-83
2023/08/02 08:40:56;;;;;;;5.17;4.73;;;;;;;22.20;61.58;97296.38;6891326;28;20276;-82
2023/08/02 08:44:18;;;;;;;19.10;6.37;;;;;;;22.53;61.76;97313.38;6888230;28;20233;-83
2023/08/02 08:47:39;;;;;;;15.40;5.50;;;;;;;22.28;62.28;97306.63;6894629;28;20208;-83
2023/08/02 08:51:02;;;;;;;5.50;4.70;;;;;;;22.46;62.24;97307.53;6896733;28;20381;-84
2023/08/02 08:54:26;;;;;;;5.77;5.03;;;;;;;22.35;62.02;97274.00;6895393;28;20243;-83
2023/08/02 08:57:50;;;;;;;5.27;4.63;;;;;;;22.29;61.90;97294.50;6889428;28;20594;-84
2023/08/02 09:01:11;;;;;;;6.33;5.10;;;;;;;22.33;61.99;97287.25;6892706;28;20242;-84
2023/08/02 09:04:33;;;;;;;5.00;4.60;;;;;;;21.84;63.24;97248.25;6894778;28;20239;-83
2023/08/02 09:07:58;;;;;;;4.77;4.30;;;;;;;22.34;63.41;97288.88;6894840;28;20303;-82
2023/08/02 09:11:19;;;;;;;4.67;4.27;;;;;;;22.38;62.76;97270.66;6898366;28;20224;-82
2023/08/02 09:14:58;;;;;;;5.17;4.47;;;;;;;22.23;63.20;97275.72;6896139;28;20769;-83
2023/08/02 09:18:34;;;;;;;5.03;3.77;;;;;;;21.96;64.03;97281.41;6868422;28;20218;-83
2023/08/02 09:22:07;;;;;;;4.90;4.00;;;;;;;21.78;63.91;97282.44;6866268;28;20803;-83
2023/08/02 09:25:29;;;;;;;5.30;3.97;;;;;;;22.09;63.85;97277.78;6870429;28;20240;-82
2023/08/02 09:28:59;;;;;;;4.37;3.97;;;;;;;21.99;63.72;97280.78;6877160;28;20257;-82
2023/08/02 09:32:24;;;;;;;4.57;3.93;;;;;;;22.09;64.50;97269.53;6879225;28;20258;-83
2023/08/02 09:35:51;;;;;;;3.50;3.20;;;;;;;22.12;64.12;97266.19;6877082;28;20208;-83
2023/08/02 09:39:14;;;;;;;4.17;3.53;;;;;;;21.65;65.59;97253.91;6876249;28;20225;-82
2023/08/02 09:42:36;;;;;;;5.70;3.43;;;;;;;21.87;65.27;97255.84;6876681;28;20231;-82
2023/08/02 09:45:57;;;;;;;3.87;3.50;;;;;;;21.46;65.05;97198.47;6875352;28;20273;-83
2023/08/02 09:49:21;;;;;;;3.83;3.37;;;;;;;22.15;64.86;97246.31;6876132;28;20243;-83
2023/08/02 09:52:43;;;;;;;3.77;3.43;;;;;;;22.42;64.77;97249.63;6872893;28;20249;-83
2023/08/02 09:56:05;;;;;;;4.13;3.53;;;;;;;22.85;62.88;97222.31;6873544;28;20283;-83
2023/08/02 09:59:29;;;;;;;5.63;3.57;;;;;;;23.04;61.90;97234.63;6874972;28;20281;-83
2023/08/02 10:02:51;;;;;;;4.43;3.63;;;;;;;23.13;62.17;97224.41;6874824;28;20697;-83
2023/08/02 10:06:14;;;;;;;3.67;3.30;;;;;;;23.65;60.72;97216.97;6874061;28;20209;-83
2023/08/02 10:09:36;;;;;;;3.67;3.37;;;;;;;23.87;59.67;97223.09;6874250;28;20697;-82
2023/08/02 10:13:00;;;;;;;5.00;3.60;;;;;;;23.89;59.35;97215.31;6875787;28;20749;-83
2023/08/02 10:16:22;;;;;;;3.47;3.17;;;;;;;23.78;60.19;97211.25;6874183;28;20360;-83
2023/08/02 10:19:44;;;;;;;3.30;3.00;;;;;;;24.01;60.05;97187.88;6874812;28;20226;-83
2023/08/02 10:23:07;;;;;;;3.90;3.53;;;;;;;24.14;59.58;97191.56;6876463;28;20305;-83
2023/08/02 10:26:31;;;;;;;3.57;3.20;;;;;;;24.19;59.60;97194.94;6900175;28;20298;-83
2023/08/02 10:29:54;;;;;;;3.20;2.90;;;;;;;23.99;60.55;97189.34;6900277;28;20263;-83
2023/08/02 10:33:20;;;;;;;4.00;3.20;;;;;;;23.62;60.98;97176.34;6900108;28;20219;-82
2023/08/02 10:36:55;;;;;;;4.07;3.60;;;;;;;23.65;60.86;97189.44;6898504;28;20223;-83
2023/08/02 10:40:19;;;;;;;3.87;3.47;;;;;;;24.13;60.57;97185.25;6900290;28;20320;-82
2023/08/02 10:44:09;;;;;;;4.33;3.90;;;;;;;24.54;58.32;97165.28;6896750;28;20696;-84
2023/08/02 10:47:32;;;;;;;19.13;17.23;;;;;;;24.63;57.82;97166.84;6894884;28;20253;-83
2023/08/02 10:50:54;;;;;;;13.67;12.20;;;;;;;24.47;58.92;97156.69;6892622;28;20239;-84
2023/08/02 10:54:18;;;;;;;9.00;8.20;;;;;;;24.34;59.27;97160.50;6892890;28;20205;-85
2023/08/02 10:57:42;;;;;;;4.57;4.13;;;;;;;24.26;59.17;97115.34;6894151;28;20228;-85
2023/08/02 11:01:09;;;;;;;7.47;6.73;;;;;;;24.53;59.23;97134.13;6894495;28;20315;-82
2023/08/02 11:04:31;;;;;;;4.07;3.67;;;;;;;24.47;57.80;97107.91;6894694;28;20201;-82
2023/08/02 11:07:59;;;;;;;3.87;3.57;;;;;;;24.48;58.97;97123.31;6914179;28;20328;-83
2023/08/02 11:11:34;;;;;;;4.33;3.80;;;;;;;24.42;59.74;97118.34;6918141;28;20241;-86
2023/08/02 11:14:57;;;;;;;5.13;4.10;;;;;;;24.60;58.08;97123.41;6916494;28;20205;-87
2023/08/02 11:18:19;;;;;;;4.33;3.93;;;;;;;24.47;58.46;97090.56;6917161;28;20216;-85
2023/08/02 11:21:52;;;;;;;6.17;4.10;;;;;;;24.30;58.84;97080.50;6891758;28;20318;-84
2023/08/02 11:25:19;;;;;;;5.20;4.13;;;;;;;24.50;59.54;97098.19;6891263;28;20211;-83
2023/08/02 11:28:42;;;;;;;5.03;4.17;;;;;;;24.53;59.84;97106.59;6894932;28;20266;-82
2023/08/02 11:32:06;;;;;;;4.57;3.70;;;;;;;24.22;60.44;97099.81;6893572;28;20235;-82
2023/08/02 11:35:27;;;;;;;4.60;4.10;;;;;;;24.35;60.56;97101.50;6894080;28;20231;-82
2023/08/02 11:38:49;;;;;;;4.13;3.73;;;;;;;24.44;60.21;97088.50;6893086;28;20228;-82
2023/08/02 11:42:10;;;;;;;4.43;4.00;;;;;;;24.26;59.84;97087.78;6911508;28;20222;-82
2023/08/02 11:45:33;;;;;;;4.57;4.17;;;;;;;24.37;59.76;97072.50;6893935;28;20297;-82
2023/08/02 11:49:06;;;;;;;4.70;4.20;;;;;;;24.73;59.05;97053.41;6891823;28;20274;-83
2023/08/02 11:52:28;;;;;;;5.17;4.67;;;;;;;24.70;59.32;97050.53;6890359;28;20233;-83
2023/08/02 11:55:50;;;;;;;5.07;4.03;;;;;;;25.07;58.55;97055.06;6871733;28;20653;-82
2023/08/02 11:59:12;;;;;;;4.13;3.73;;;;;;;25.79;57.66;97053.25;6864138;28;20274;-83
2023/08/02 12:02:34;;;;;;;8.60;5.83;;;;;;;26.25;56.48;97047.25;6865550;28;20275;-83
2023/08/02 12:06:01;;;;;;;4.00;3.57;;;;;;;26.86;54.75;97034.91;6875127;28;20208;-83
2023/08/02 12:09:40;;;;;;;5.40;3.77;;;;;;;27.00;53.49;97032.53;6893716;28;20197;-82
2023/08/02 12:13:09;;;;;;;4.47;4.07;;;;;;;26.59;55.86;97015.53;6894308;28;20558;-83
2023/08/02 12:16:39;;;;;;;3.90;3.50;;;;;;;27.34;55.33;97018.09;6893576;28;20200;-83
2023/08/02 12:20:00;;;;;;;4.60;3.50;;;;;;;27.21;52.47;97010.22;6866718;28;20245;-82
2023/08/02 12:23:31;;;;;;;3.77;3.37;;;;;;;26.85;53.13;96974.41;6867431;28;20296;-82
2023/08/02 12:26:52;;;;;;;5.70;3.80;;;;;;;27.47;51.51;97013.25;6866410;28;20196;-82
2023/08/02 12:30:16;;;;;;;4.03;3.60;;;;;;;27.84;50.81;96981.38;6866152;28;20261;-82
2023/08/02 12:33:37;;;;;;;4.00;3.60;;;;;;;28.64;48.96;96994.28;6866349;28;20239;-82
2023/08/02 12:36:59;;;;;;;4.57;3.30;;;;;;;28.81;48.25;96995.81;6866028;28;20313;-82
2023/08/02 12:40:23;;;;;;;5.10;3.37;;;;;;;28.68;49.11;96984.09;6881998;28;20231;-82
2023/08/02 12:43:44;;;;;;;4.00;3.60;;;;;;;29.12;46.83;96952.06;6893181;28;20207;-82
2023/08/02 12:47:06;;;;;;;5.60;3.37;;;;;;;29.19;47.27;96971.63;6893365;28;20248;-83
2023/08/02 12:50:27;;;;;;;5.13;3.33;;;;;;;29.31;47.05;96965.88;6888941;28;20263;-82
2023/08/02 12:53:49;;;;;;;6.40;3.20;;;;;;;28.17;47.90;96963.16;6892628;28;20362;-83
2023/08/02 12:57:12;;;;;;;6.70;3.47;;;;;;;28.46;47.59;96962.63;6891068;28;20684;-82
2023/08/02 13:00:33;;;;;;;3.43;2.83;;;;;;;28.46;47.43;96962.63;6890059;28;20320;-82
2023/08/02 13:03:55;;;;;;;4.07;2.70;;;;;;;27.95;46.97;96958.28;6891200;28;20304;-82
2023/08/02 13:07:16;;;;;;;3.27;2.97;;;;;;;28.06;46.97;96947.44;6892616;28;20214;-82
2023/08/02 13:10:38;;;;;;;3.20;2.40;;;;;;;27.96;47.34;96965.44;6896626;28;20275;-83
2023/08/02 13:14:01;;;;;;;4.97;2.70;;;;;;;28.12;47.07;96952.34;6917882;28;20220;-83
2023/08/02 13:17:22;;;;;;;3.33;2.70;;;;;;;28.16;46.28;96944.09;6916782;28;20300;-82
2023/08/02 13:20:44;;;;;;;3.30;2.53;;;;;;;28.31;46.06;96937.72;6916553;28;20335;-83
2023/08/02 13:24:05;;;;;;;3.80;2.50;;;;;;;28.67;45.88;96946.41;6923254;28;20212;-83
2023/08/02 13:27:27;;;;;;;4.33;2.53;;;;;;;28.71;44.90;96930.63;6915775;28;20362;-83
2023/08/02 13:30:50;;;;;;;2.70;2.50;;;;;;;28.79;45.47;96904.63;6917066;28;20611;-83
2023/08/02 13:34:11;;;;;;;5.03;2.83;;;;;;;28.63;46.67;96942.78;6916573;28;20345;-83
2023/08/02 13:37:33;;;;;;;4.63;3.13;;;;;;;28.99;45.52;96928.44;6915551;28;20244;-83
2023/08/02 13:40:55;;;;;;;2.70;2.50;;;;;;;27.96;47.37;96912.78;6916275;28;20234;-83
2023/08/02 13:44:17;;;;;;;4.13;2.70;;;;;;;28.44;47.59;96945.56;6894242;28;20243;-84
2023/08/02 13:47:40;;;;;;;4.10;2.83;;;;;;;28.77;47.68;96950.59;6892323;28;20224;-82
2023/08/02 13:51:01;;;;;;;4.50;3.10;;;;;;;28.97;48.64;96950.22;6889317;28;20717;-83
2023/08/02 13:54:23;;;;;;;3.67;2.73;;;;;;;28.50;46.65;96910.00;6890121;28;20569;-82
2023/08/02 13:57:44;;;;;;;3.83;2.50;;;;;;;28.37;47.37;96950.16;6889441;28;20371;-82
2023/08/02 14:01:06;;;;;;;3.00;2.43;;;;;;;27.81;50.55;96940.53;6888096;28;20305;-83
2023/08/02 14:04:29;;;;;;;2.47;2.27;;;;;;;28.30;48.57;96925.81;6888794;28;20433;-83
2023/08/02 14:07:51;;;;;;;2.87;2.67;;;;;;;28.88;48.67;96919.09;6887782;28;20202;-83
2023/08/02 14:11:12;;;;;;;4.20;2.83;;;;;;;28.75;47.62;96902.97;6891177;28;20251;-82
2023/08/02 14:14:34;;;;;;;3.00;2.53;;;;;;;28.62;47.35;96896.81;6891282;28;20630;-82
2023/08/02 14:17:55;;;;;;;2.47;2.10;;;;;;;28.22;47.43;96901.09;6892329;28;20263;-83
2023/08/02 14:21:18;;;;;;;2.67;2.33;;;;;;;28.21;47.78;96899.47;6892978;28;20351;-82
2023/08/02 14:24:40;;;;;;;2.63;2.30;;;;;;;28.44;47.33;96915.06;6891412;28;20211;-83
2023/08/02 14:28:01;;;;;;;2.73;2.30;;;;;;;28.35;46.51;96905.31;6891929;28;20728;-83
2023/08/02 14:31:23;;;;;;;3.20;2.40;;;;;;;28.37;47.27;96901.03;6892378;28;20311;-82
2023/08/02 14:34:44;;;;;;;5.03;2.30;;;;;;;28.47;46.87;96894.09;6892404;28;20241;-82
2023/08/02 14:38:07;;;;;;;3.37;2.20;;;;;;;28.59;45.65;96894.75;6891660;28;20313;-83
2023/08/02 14:41:29;;;;;;;4.07;2.33;;;;;;;28.22;46.18;96896.34;6892489;28;20592;-82
2023/08/02 14:44:51;;;;;;;2.10;2.00;;;;;;;28.20;46.56;96895.13;6891794;28;20235;-82
2023/08/02 14:48:12;;;;;;;2.97;2.13;;;;;;;28.13;45.97;96894.97;6891320;28;20211;-82
2023/08/02 14:51:34;;;;;;;3.40;2.23;;;;;;;28.65;45.09;96890.50;6891780;28;20294;-82
2023/08/02 14:54:59;;;;;;;2.60;2.33;;;;;;;28.89;45.28;96894.94;6892234;28;20806;-83
2023/08/02 14:58:21;;;;;;;3.03;2.03;;;;;;;28.66;44.74;96883.00;6890730;28;20236;-82
2023/08/02 15:01:42;;;;;;;2.63;2.40;;;;;;;28.90;44.16;96882.66;6891747;28;20264;-83
2023/08/02 15:05:04;;;;;;;2.33;2.00;;;;;;;29.41;44.30;96856.16;6891066;28;20241;-83
2023/08/02 15:08:26;;;;;;;2.23;2.03;;;;;;;29.19;44.24;96852.25;6889916;28;20301;-83
2023/08/02 15:11:48;;;;;;;2.60;2.40;;;;;;;28.91;45.40;96862.06;6891120;28;20732;-83
2023/08/02 15:15:12;;;;;;;2.40;2.20;;;;;;;28.60;45.89;96838.13;6890483;28;20217;-84
2023/08/02 15:18:33;;;;;;;2.73;2.53;;;;;;;29.03;46.05;96832.19;6889216;28;20235;-83
2023/08/02 15:21:55;;;;;;;2.70;2.23;;;;;;;29.23;45.54;96841.19;6890820;28;20226;-84
2023/08/02 15:25:16;;;;;;;3.83;2.30;;;;;;;29.16;44.98;96849.41;6890203;28;20214;-82
2023/08/02 15:28:39;;;;;;;2.63;2.37;;;;;;;29.37;46.31;96828.34;6874126;28;20293;-82
2023/08/02 15:32:01;;;;;;;2.37;2.17;;;;;;;29.88;43.86;96831.47;6864373;28;20347;-83
2023/08/02 15:35:22;;;;;;;3.30;2.23;;;;;;;30.51;43.29;96829.50;6867608;28;20235;-82
2023/08/02 15:38:44;;;;;;;3.50;2.27;;;;;;;30.64;42.06;96808.56;6889720;28;20366;-83
2023/08/02 15:42:06;;;;;;;3.43;2.17;;;;;;;30.05;44.90;96823.38;6890488;28;20233;-83
2023/08/02 15:45:30;;;;;;;4.20;2.40;;;;;;;30.15;44.60;96808.03;6890059;28;20689;-83
2023/08/02 15:48:51;;;;;;;2.70;2.13;;;;;;;29.73;45.77;96788.81;6888225;28;20197;-83
2023/08/02 15:52:13;;;;;;;2.33;2.13;;;;;;;29.47;45.60;96805.50;6890349;28;20224;-83
2023/08/02 15:55:34;;;;;;;3.13;2.53;;;;;;;29.82;44.30;96806.00;6891416;28;20242;-83